createdAt,value
2022-10-08T00:01:13.859Z,395.35
2022-10-08T00:04:03.277Z,391.15
2022-10-08T00:06:51.281Z,377.77
2022-10-08T00:09:39.187Z,392.48
2022-10-08T00:12:28.629Z,425.02
2022-10-08T00:15:16.754Z,355.95
2022-10-08T00:18:04.934Z,389.95
2022-10-08T00:20:52.832Z,384.92
2022-10-08T00:23:40.737Z,379.88
2022-10-08T00:26:31.095Z,381.48
2022-10-08T00:29:22.546Z,388.42
2022-10-08T00:32:11.715Z,394.23
2022-10-08T00:34:59.647Z,400.15
2022-10-08T00:37:47.536Z,384.48
2022-10-08T00:40:42.612Z,394.00
2022-10-08T00:43:39.963Z,394.65
2022-10-08T00:46:34.750Z,389.85
2022-10-08T00:49:25.114Z,386.73
2022-10-08T00:52:13.194Z,395.90
2022-10-08T00:55:01.880Z,390.33
2022-10-08T00:57:52.748Z,414.23
2022-10-08T01:00:40.773Z,429.35
2022-10-08T01:03:30.191Z,386.58
2022-10-08T01:06:26.683Z,385.30
2022-10-08T01:09:19.352Z,380.70
2022-10-08T01:12:15.970Z,404.38
2022-10-08T01:15:12.744Z,383.52
2022-10-08T01:18:10.417Z,392.63
2022-10-08T01:21:08.668Z,403.33
2022-10-08T01:24:21.910Z,388.45
2022-10-08T01:27:20.575Z,374.60
2022-10-08T01:30:12.801Z,390.73
2022-10-08T01:33:12.291Z,398.20
2022-10-08T01:36:04.120Z,387.15
2022-10-08T01:38:57.180Z,387.00
2022-10-08T01:41:50.602Z,378.58
2022-10-08T01:44:43.412Z,380.27
2022-10-08T01:47:32.085Z,381.73
2022-10-08T01:50:27.065Z,366.65
2022-10-08T01:53:18.929Z,368.88
2022-10-08T01:56:10.663Z,393.90
2022-10-08T01:59:02.789Z,387.38
2022-10-08T02:02:01.574Z,406.98
2022-10-08T02:04:51.647Z,388.08
2022-10-08T02:07:42.343Z,390.77
2022-10-08T02:10:30.454Z,390.33
2022-10-08T02:13:18.760Z,381.10
2022-10-08T02:16:12.148Z,375.48
2022-10-08T02:19:08.062Z,386.83
2022-10-08T02:21:57.664Z,381.25
2022-10-08T02:24:52.563Z,364.42
2022-10-08T02:27:52.296Z,363.75
2022-10-08T02:30:48.521Z,390.15
2022-10-08T02:33:51.845Z,387.27
2022-10-08T02:36:47.136Z,377.70
2022-10-08T02:39:39.121Z,394.23
2022-10-08T02:42:29.612Z,394.52
2022-10-08T02:45:22.802Z,394.85
2022-10-08T02:48:17.372Z,393.60
2022-10-08T02:51:09.007Z,393.13
2022-10-08T02:53:59.520Z,389.95
2022-10-08T02:56:52.288Z,399.25
2022-10-08T02:59:40.694Z,364.20
2022-10-08T03:02:36.828Z,380.15
2022-10-08T03:05:25.650Z,395.67
2022-10-08T03:08:15.316Z,375.52
2022-10-08T03:11:06.239Z,389.20
2022-10-08T03:13:58.422Z,395.60
2022-10-08T03:16:48.722Z,387.15
2022-10-08T03:19:36.901Z,377.73
2022-10-08T03:22:25.246Z,383.65
2022-10-08T03:25:13.183Z,379.15
2022-10-08T03:28:02.622Z,391.95
2022-10-08T03:30:50.572Z,401.17
2022-10-08T03:33:38.487Z,406.17
2022-10-08T03:36:27.337Z,381.42
2022-10-08T03:39:15.360Z,399.60
2022-10-08T03:42:03.286Z,388.23
2022-10-08T03:44:53.446Z,373.17
2022-10-08T03:47:41.355Z,362.55
2022-10-08T03:50:29.280Z,377.13
2022-10-08T03:53:17.179Z,362.63
2022-10-08T03:56:07.247Z,375.90
2022-10-08T03:58:56.688Z,389.48
2022-10-08T04:01:46.033Z,361.35
2022-10-08T04:04:33.989Z,357.15
2022-10-08T04:07:21.908Z,366.23
2022-10-08T04:10:10.066Z,355.58
2022-10-08T04:12:58.196Z,351.15
2022-10-08T04:15:47.177Z,367.42
2022-10-08T04:18:36.758Z,353.58
2022-10-08T04:21:24.674Z,333.48
2022-10-08T04:24:12.842Z,352.38
2022-10-08T04:27:00.747Z,350.98
2022-10-08T04:29:48.645Z,332.42
2022-10-08T04:32:36.602Z,333.40
2022-10-08T04:35:25.908Z,332.05
2022-10-08T04:38:13.856Z,335.75
2022-10-08T04:41:03.110Z,330.25
2022-10-08T04:43:51.976Z,331.25
2022-10-08T04:46:39.906Z,321.15
2022-10-08T04:49:28.903Z,330.38
2022-10-08T04:52:20.411Z,318.98
2022-10-08T04:55:09.668Z,327.27
2022-10-08T04:57:57.598Z,330.27
2022-10-08T05:00:45.520Z,323.92
2022-10-08T05:03:37.184Z,331.08
2022-10-08T05:06:28.037Z,334.83
2022-10-08T05:09:17.301Z,336.00
2022-10-08T05:12:05.319Z,329.08
2022-10-08T05:14:53.203Z,323.17
2022-10-08T05:17:41.082Z,320.05
2022-10-08T05:20:29.024Z,334.10
2022-10-08T05:23:16.942Z,322.13
2022-10-08T05:26:14.454Z,324.83
2022-10-08T05:29:02.651Z,331.20
2022-10-08T05:31:50.539Z,324.70
2022-10-08T05:34:38.569Z,310.13
2022-10-08T05:37:26.607Z,308.52
2022-10-08T05:40:14.562Z,305.90
2022-10-08T05:43:03.813Z,284.02
2022-10-08T05:45:52.120Z,295.38
2022-10-08T05:48:40.895Z,301.17
2022-10-08T05:51:29.432Z,310.43
2022-10-08T05:54:18.437Z,313.67
2022-10-08T05:57:06.378Z,298.97
2022-10-08T05:59:55.637Z,298.33
2022-10-08T06:02:43.629Z,282.97
2022-10-08T06:05:11.298Z,320.73
2022-10-08T06:07:38.968Z,312.37
2022-10-08T06:10:07.895Z,321.63
2022-10-08T06:12:35.545Z,323.23
2022-10-08T06:15:04.914Z,328.33
2022-10-08T06:17:32.541Z,336.10
2022-10-08T06:20:00.143Z,343.63
2022-10-08T06:22:27.712Z,322.50
2022-10-08T06:24:55.390Z,325.58
2022-10-08T06:27:23.001Z,318.57
2022-10-08T06:29:50.614Z,362.63
2022-10-08T06:32:19.549Z,328.35
2022-10-08T06:34:47.216Z,344.65
2022-10-08T06:37:14.882Z,340.65
2022-10-08T06:39:47.539Z,344.77
2022-10-08T06:42:16.037Z,333.65
2022-10-08T06:44:45.039Z,335.98
2022-10-08T06:47:12.707Z,363.42
2022-10-08T06:49:41.660Z,332.67
2022-10-08T06:52:09.301Z,338.00
2022-10-08T06:54:37.068Z,337.08
2022-10-08T06:57:04.790Z,364.88
2022-10-08T06:59:32.429Z,351.52
2022-10-08T07:02:00.094Z,359.17
2022-10-08T07:04:27.713Z,354.40
2022-10-08T07:06:56.782Z,356.92
2022-10-08T07:09:24.880Z,355.02
2022-10-08T07:11:52.490Z,375.67
2022-10-08T07:14:20.170Z,366.83
2022-10-08T07:16:47.910Z,369.65
2022-10-08T07:19:15.599Z,361.55
2022-10-08T07:21:43.262Z,368.77
2022-10-08T07:24:12.406Z,354.73
2022-10-08T07:26:40.077Z,359.55
2022-10-08T07:29:11.921Z,370.77
2022-10-08T07:31:40.419Z,376.42
2022-10-08T07:34:10.830Z,352.45
2022-10-08T07:36:39.572Z,373.38
2022-10-08T07:39:08.918Z,381.30
2022-10-08T07:41:37.990Z,378.15
2022-10-08T07:44:06.434Z,386.40
2022-10-08T07:46:36.467Z,390.02
2022-10-08T07:49:04.942Z,384.02
2022-10-08T07:51:35.012Z,352.65
2022-10-08T07:54:04.800Z,389.48
2022-10-08T07:56:33.396Z,352.45
2022-10-08T07:59:03.648Z,357.73
2022-10-08T08:01:33.265Z,368.40
2022-10-08T08:04:03.047Z,385.70
2022-10-08T08:06:31.953Z,377.80
2022-10-08T08:09:01.063Z,379.48
2022-10-08T08:11:29.091Z,402.60
2022-10-08T08:13:57.147Z,412.50
2022-10-08T08:16:29.013Z,395.23
2022-10-08T08:18:58.513Z,409.17
2022-10-08T08:21:28.163Z,424.60
2022-10-08T08:23:57.241Z,397.63
2022-10-08T08:26:26.847Z,413.92
2022-10-08T08:28:55.967Z,410.42
2022-10-08T08:31:27.322Z,418.55
2022-10-08T08:33:57.019Z,409.85
2022-10-08T08:36:26.964Z,423.05
2022-10-08T08:38:54.792Z,412.08
2022-10-08T08:41:36.758Z,415.30
2022-10-08T08:44:10.509Z,399.05
2022-10-08T08:46:44.554Z,403.92
2022-10-08T08:49:20.952Z,403.63
2022-10-08T08:51:48.702Z,431.50
2022-10-08T08:54:16.362Z,422.63
2022-10-08T08:56:44.373Z,445.80
2022-10-08T08:59:25.339Z,455.45
2022-10-08T09:01:57.489Z,445.17
2022-10-08T09:04:40.462Z,439.25
2022-10-08T09:07:15.528Z,421.00
2022-10-08T09:09:45.896Z,435.63
2022-10-08T09:12:20.824Z,462.85
2022-10-08T09:14:54.359Z,416.35
2022-10-08T09:17:30.859Z,429.67
2022-10-08T09:20:00.416Z,404.63
2022-10-08T09:22:30.794Z,405.95
2022-10-08T09:25:01.124Z,407.83
2022-10-08T09:27:45.204Z,409.42
2022-10-08T09:30:31.106Z,404.65
2022-10-08T09:33:03.286Z,377.27
2022-10-08T09:35:33.610Z,378.80
2022-10-08T09:38:05.809Z,356.60
2022-10-08T09:40:33.879Z,345.92
2022-10-08T09:43:18.166Z,363.52
2022-10-08T09:45:46.841Z,348.65
2022-10-08T09:48:24.791Z,359.30
2022-10-08T09:50:59.542Z,352.27
2022-10-08T09:53:32.640Z,345.23
2022-10-08T09:56:02.587Z,361.45
2022-10-08T09:58:32.981Z,343.88
2022-10-08T10:01:05.205Z,346.40
2022-10-08T10:03:36.300Z,351.95
2022-10-08T10:06:04.333Z,332.15
2022-10-08T10:08:51.641Z,335.63
2022-10-08T10:11:26.661Z,329.27
2022-10-08T10:13:55.926Z,338.92
2022-10-08T10:16:27.946Z,359.15
2022-10-08T10:19:01.344Z,348.90
2022-10-08T10:21:37.744Z,328.67
2022-10-08T10:24:37.652Z,324.77
2022-10-08T10:27:10.202Z,315.98
2022-10-08T10:29:47.764Z,342.40
2022-10-08T10:32:21.364Z,336.23
2022-10-08T10:35:00.091Z,341.08
2022-10-08T10:37:36.408Z,327.75
2022-10-08T10:40:24.694Z,319.88
2022-10-08T10:42:59.072Z,317.35
2022-10-08T10:45:30.843Z,339.10
2022-10-08T10:47:58.700Z,324.30
2022-10-08T10:50:38.164Z,348.33
2022-10-08T10:53:16.623Z,337.02
2022-10-08T10:55:54.922Z,349.75
2022-10-08T10:58:41.840Z,352.77
2022-10-08T11:01:24.559Z,360.27
2022-10-08T11:04:02.270Z,338.73
2022-10-08T11:06:53.576Z,347.75
2022-10-08T11:09:32.975Z,340.70
2022-10-08T11:12:07.998Z,341.20
2022-10-08T11:14:44.663Z,339.20
2022-10-08T11:17:33.734Z,348.55
2022-10-08T11:20:16.995Z,345.90
2022-10-08T11:22:54.143Z,352.98
2022-10-08T11:25:31.737Z,345.58
2022-10-08T11:28:18.849Z,340.10
2022-10-08T11:30:57.468Z,348.08
2022-10-08T11:33:26.488Z,349.65
2022-10-08T11:36:14.743Z,352.08
2022-10-08T11:38:50.954Z,367.67
2022-10-08T11:41:26.827Z,353.10
2022-10-08T11:43:57.011Z,346.45
2022-10-08T11:46:29.898Z,361.13
2022-10-08T11:49:00.491Z,354.15
2022-10-08T11:51:37.559Z,349.90
2022-10-08T11:54:13.909Z,350.05
2022-10-08T11:56:44.375Z,357.30
2022-10-08T11:59:31.366Z,335.90
2022-10-08T12:02:01.920Z,344.45
2022-10-08T12:04:34.243Z,352.85
2022-10-08T12:07:06.451Z,342.17
2022-10-08T12:10:10.659Z,320.50
2022-10-08T12:13:01.925Z,322.77
2022-10-08T12:15:55.439Z,346.40
2022-10-08T12:18:54.077Z,341.27
2022-10-08T12:21:49.893Z,329.20
2022-10-08T12:24:50.892Z,345.80
2022-10-08T12:27:28.954Z,357.40
2022-10-08T12:29:59.431Z,352.52
2022-10-08T12:32:28.513Z,330.58
2022-10-08T12:34:56.775Z,349.08
2022-10-08T12:37:51.096Z,329.98
2022-10-08T12:40:26.561Z,345.75
2022-10-08T12:43:08.867Z,327.95
2022-10-08T12:45:47.100Z,340.52
2022-10-08T12:48:24.078Z,331.77
2022-10-08T12:51:02.169Z,323.15
2022-10-08T12:53:30.021Z,338.30
2022-10-08T12:55:59.218Z,339.20
2022-10-08T12:58:32.331Z,323.63
2022-10-08T13:01:02.766Z,315.75
2022-10-08T13:03:30.992Z,330.25
2022-10-08T13:05:58.645Z,341.83
2022-10-08T13:08:33.306Z,340.90
2022-10-08T13:11:03.339Z,326.88
2022-10-08T13:13:45.943Z,316.73
2022-10-08T13:16:15.502Z,325.65
2022-10-08T13:18:45.608Z,317.02
2022-10-08T13:21:34.117Z,321.35
2022-10-08T13:24:03.070Z,334.67
2022-10-08T13:26:42.013Z,319.83
2022-10-08T13:29:30.921Z,323.52
2022-10-08T13:32:00.406Z,306.55
2022-10-08T13:34:30.896Z,326.52
2022-10-08T13:37:01.896Z,281.90
2022-10-08T13:39:32.060Z,292.88
2022-10-08T13:42:02.047Z,295.13
2022-10-08T13:44:33.542Z,292.98
2022-10-08T13:47:03.875Z,301.80
2022-10-08T13:49:33.859Z,290.20
2022-10-08T13:52:02.113Z,294.65
2022-10-08T13:54:33.095Z,305.52
2022-10-08T13:57:01.252Z,294.15
2022-10-08T13:59:30.850Z,284.17
2022-10-08T14:02:00.189Z,286.20
2022-10-08T14:04:28.471Z,274.67
2022-10-08T14:06:58.802Z,284.42
2022-10-08T14:09:30.120Z,286.70
2022-10-08T14:12:01.131Z,276.25
2022-10-08T14:14:28.984Z,277.77
2022-10-08T14:16:56.774Z,293.75
2022-10-08T14:19:25.734Z,290.90
2022-10-08T14:21:56.825Z,287.02
2022-10-08T14:24:24.456Z,281.80
2022-10-08T14:26:52.095Z,275.50
2022-10-08T14:29:19.732Z,279.48
2022-10-08T14:31:47.406Z,285.70
2022-10-08T14:34:15.175Z,290.25
2022-10-08T14:36:44.253Z,282.52
2022-10-08T14:39:11.874Z,290.00
2022-10-08T14:41:40.699Z,290.00
2022-10-08T14:44:08.345Z,273.20
2022-10-08T14:46:35.970Z,290.13
2022-10-08T14:49:04.772Z,282.35
2022-10-08T14:51:38.387Z,303.60
2022-10-08T14:54:08.460Z,283.88
2022-10-08T14:56:43.167Z,266.60
2022-10-08T14:59:11.274Z,291.17
2022-10-08T15:01:39.188Z,292.65
2022-10-08T15:04:08.032Z,293.45
2022-10-08T15:06:36.215Z,281.42
2022-10-08T15:09:03.948Z,285.52
2022-10-08T15:11:32.932Z,292.30
2022-10-08T15:14:00.532Z,310.95
2022-10-08T15:16:28.911Z,281.90
2022-10-08T15:18:56.587Z,291.70
2022-10-08T15:21:24.195Z,296.48
2022-10-08T15:23:51.817Z,285.58
2022-10-08T15:26:19.631Z,271.35
2022-10-08T15:28:52.879Z,286.02
2022-10-08T15:31:22.238Z,296.67
2022-10-08T15:33:51.511Z,297.05
2022-10-08T15:36:20.200Z,273.23
2022-10-08T15:38:48.733Z,268.33
2022-10-08T15:41:17.343Z,275.27
2022-10-08T15:43:45.474Z,268.50
2022-10-08T15:46:17.203Z,279.30
2022-10-08T15:48:53.142Z,279.25
2022-10-08T15:51:21.225Z,268.88
2022-10-08T15:53:49.244Z,277.35
2022-10-08T15:56:17.787Z,271.55
2022-10-08T15:58:50.969Z,266.23
2022-10-08T16:01:23.104Z,278.17
2022-10-08T16:03:52.443Z,292.60
2022-10-08T16:06:22.246Z,276.50
2022-10-08T16:08:50.150Z,275.83
2022-10-08T16:11:19.206Z,274.33
2022-10-08T16:13:48.344Z,282.35
2022-10-08T16:16:17.938Z,295.65
2022-10-08T16:18:50.847Z,316.35
2022-10-08T16:21:19.187Z,312.45
2022-10-08T16:23:47.139Z,307.02
2022-10-08T16:26:20.231Z,347.90
2022-10-08T16:28:49.074Z,325.83
2022-10-08T16:31:17.205Z,330.10
2022-10-08T16:33:45.589Z,325.85
2022-10-08T16:36:15.494Z,340.67
2022-10-08T16:38:43.222Z,337.95
2022-10-08T16:41:13.048Z,347.92
2022-10-08T16:43:41.130Z,368.17
2022-10-08T16:46:14.944Z,386.67
2022-10-08T16:48:42.670Z,372.25
2022-10-08T16:51:11.547Z,364.55
2022-10-08T16:53:40.506Z,393.70
2022-10-08T16:56:08.184Z,380.70
2022-10-08T16:58:35.810Z,370.23
2022-10-08T17:01:08.518Z,375.23
2022-10-08T17:03:36.806Z,375.50
2022-10-08T17:06:05.245Z,380.70
2022-10-08T17:08:33.005Z,363.15
2022-10-08T17:11:05.672Z,387.55
2022-10-08T17:13:33.835Z,350.08
2022-10-08T17:16:03.572Z,333.85
2022-10-08T17:18:33.116Z,347.98
2022-10-08T17:21:01.460Z,344.20
2022-10-08T17:23:34.136Z,333.27
2022-10-08T17:26:04.545Z,350.02
2022-10-08T17:28:35.337Z,331.50
2022-10-08T17:31:04.587Z,326.48
2022-10-08T17:33:35.654Z,346.02
2022-10-08T17:36:06.167Z,350.60
2022-10-08T17:38:34.711Z,329.00
2022-10-08T17:41:02.772Z,350.95
2022-10-08T17:43:30.423Z,337.83
2022-10-08T17:46:08.845Z,346.48
2022-10-08T17:48:36.756Z,338.48
2022-10-08T17:51:05.665Z,335.50
2022-10-08T17:53:33.801Z,345.05
2022-10-08T17:56:02.958Z,308.98
2022-10-08T17:58:30.813Z,305.23
2022-10-08T18:01:08.918Z,308.33
2022-10-08T18:03:37.992Z,315.92
2022-10-08T18:06:06.825Z,306.95
2022-10-08T18:08:34.517Z,307.42
2022-10-08T18:11:04.165Z,292.23
2022-10-08T18:13:31.927Z,307.15
2022-10-08T18:16:03.519Z,298.40
2022-10-08T18:18:32.841Z,279.73
2022-10-08T18:21:01.871Z,270.05
2022-10-08T18:23:30.631Z,288.30
2022-10-08T18:26:07.749Z,288.60
2022-10-08T18:28:35.685Z,291.35
2022-10-08T18:31:07.325Z,279.80
2022-10-08T18:33:37.839Z,275.58
2022-10-08T18:36:13.185Z,286.48
2022-10-08T18:38:41.741Z,265.13
2022-10-08T18:41:14.683Z,267.20
2022-10-08T18:43:43.079Z,288.23
2022-10-08T18:46:10.798Z,287.27
2022-10-08T18:48:39.829Z,280.40
2022-10-08T18:51:08.843Z,286.83
2022-10-08T18:53:38.647Z,295.10
2022-10-08T18:56:09.331Z,284.58
2022-10-08T18:58:37.461Z,277.58
2022-10-08T19:01:06.826Z,279.38
2022-10-08T19:03:34.484Z,289.97
2022-10-08T19:06:07.457Z,277.80
2022-10-08T19:08:35.051Z,272.85
2022-10-08T19:11:09.732Z,266.15
2022-10-08T19:13:37.398Z,273.67
2022-10-08T19:16:05.337Z,270.38
2022-10-08T19:18:33.119Z,298.73
2022-10-08T19:21:08.974Z,275.50
2022-10-08T19:23:36.605Z,267.80
2022-10-08T19:26:05.515Z,293.33
2022-10-08T19:28:33.542Z,266.60
2022-10-08T19:31:01.334Z,281.88
2022-10-08T19:33:29.183Z,290.15
2022-10-08T19:36:01.514Z,301.30
2022-10-08T19:38:30.555Z,299.25
2022-10-08T19:40:58.154Z,273.17
2022-10-08T19:43:25.802Z,298.67
2022-10-08T19:45:53.398Z,288.75
2022-10-08T19:48:21.046Z,275.25
2022-10-08T19:50:48.725Z,274.65
2022-10-08T19:53:16.319Z,268.05
2022-10-08T19:55:45.285Z,277.17
2022-10-08T19:58:12.919Z,279.30
2022-10-08T20:00:40.570Z,262.83
2022-10-08T20:03:26.667Z,259.67
2022-10-08T20:06:20.345Z,270.63
2022-10-08T20:09:13.191Z,260.67
2022-10-08T20:12:02.939Z,268.37
2022-10-08T20:14:50.851Z,263.67
2022-10-08T20:17:38.816Z,262.00
2022-10-08T20:20:33.296Z,253.13
2022-10-08T20:23:21.632Z,264.87
2022-10-08T20:26:11.417Z,273.40
2022-10-08T20:29:02.502Z,268.93
2022-10-08T20:31:54.104Z,247.90
2022-10-08T20:34:43.071Z,259.30
2022-10-08T20:37:31.472Z,258.13
2022-10-08T20:40:19.389Z,244.33
2022-10-08T20:43:07.274Z,241.73
2022-10-08T20:45:57.311Z,243.30
2022-10-08T20:48:46.947Z,229.80
2022-10-08T20:51:35.674Z,241.90
2022-10-08T20:54:23.795Z,244.40
2022-10-08T20:57:12.095Z,249.50
2022-10-08T21:00:00.396Z,234.60
2022-10-08T21:02:49.910Z,241.63
2022-10-08T21:05:43.047Z,247.53
2022-10-08T21:08:30.958Z,253.60
2022-10-08T21:11:20.575Z,241.70
2022-10-08T21:14:10.140Z,241.80
2022-10-08T21:16:58.072Z,228.37
2022-10-08T21:19:47.304Z,222.63
2022-10-08T21:22:35.177Z,265.90
2022-10-08T21:25:23.076Z,243.10
2022-10-08T21:28:11.053Z,214.57
2022-10-08T21:31:03.275Z,225.67
2022-10-08T21:33:53.584Z,248.03
2022-10-08T21:36:44.548Z,253.40
2022-10-08T21:39:32.498Z,235.90
2022-10-08T21:42:21.034Z,255.17
2022-10-08T21:45:09.866Z,254.33
2022-10-08T21:47:57.745Z,242.43
2022-10-08T21:50:45.644Z,260.37
2022-10-08T21:53:36.904Z,243.67
2022-10-08T21:56:26.595Z,243.53
2022-10-08T21:59:16.140Z,232.70
2022-10-08T22:02:04.133Z,234.10
2022-10-08T22:04:52.256Z,223.47
2022-10-08T22:07:40.194Z,247.17
2022-10-08T22:10:29.429Z,242.03
2022-10-08T22:13:18.405Z,241.90
2022-10-08T22:16:08.458Z,245.30
2022-10-08T22:18:56.606Z,238.77
2022-10-08T22:21:44.761Z,255.67
2022-10-08T22:24:32.753Z,244.37
2022-10-08T22:27:21.989Z,262.13
2022-10-08T22:30:10.944Z,253.73
2022-10-08T22:32:58.830Z,251.70
2022-10-08T22:35:47.717Z,237.27
2022-10-08T22:38:36.893Z,237.07
2022-10-08T22:41:26.314Z,234.13
2022-10-08T22:44:15.557Z,243.60
2022-10-08T22:47:03.448Z,242.30
2022-10-08T22:49:51.401Z,235.63
2022-10-08T22:52:39.312Z,217.17
2022-10-08T22:55:27.315Z,223.03
2022-10-08T22:58:15.239Z,233.23
2022-10-08T23:01:07.507Z,233.57
2022-10-08T23:03:55.598Z,206.60
2022-10-08T23:06:43.509Z,236.53
2022-10-08T23:09:31.449Z,220.47
2022-10-08T23:12:19.393Z,216.67
2022-10-08T23:15:08.472Z,216.23
2022-10-08T23:17:57.700Z,242.13
2022-10-08T23:20:45.637Z,238.53
2022-10-08T23:23:34.179Z,241.57
2022-10-08T23:26:23.433Z,228.60
2022-10-08T23:29:11.772Z,232.40
2022-10-08T23:31:59.712Z,256.43
2022-10-08T23:34:49.049Z,231.60
2022-10-08T23:37:36.961Z,231.60
2022-10-08T23:40:24.886Z,249.20
2022-10-08T23:43:12.790Z,237.63
2022-10-08T23:46:00.781Z,242.00
2022-10-08T23:48:49.190Z,231.67
2022-10-08T23:51:38.495Z,246.50
2022-10-08T23:54:26.706Z,230.10
2022-10-08T23:57:14.672Z,224.73
